KBKD

Stephens County Airport

Breckenridge, Texas, USA
METAR KBKD 151655Z AUTO 30007KT 10SM CLR 09/M05 A3028 RMK AO2 T00901048
Observed Flight Rules
Dec-15 @ 16:55 UTC (19 minutes ago) Visual Flight Rules
Wind Visibility Clouds
300° at 7 knots 10 miles
  • Clear skies
Temperatures Readings
Current 9°C / 48°F
Dewpoint -5°C / 23°F
Humidity 37%
Altimeter 30.28" Hg
Pressure 1025 hPa
Elevation 392
METAR KBKD 151655Z AUTO 30007KT 10SM CLR 09/M05 A3028 RMK AO2 T00901048
Observed Flight Rules
Dec-15 @ 16:55 UTC
(19 minutes ago)
VFR
Wind Visibility
300° at 7 knots 10 miles
Clouds
  • Clear skies
Temperature Dewpoint
9°C / 48°F -5°C / 23°F
Humidity Altimeter Pressure
37% 30.28" Hg 1025 hPa